KGVL/GVL METAR and TAF weather

Enter ICAO airport designator
Station Type Date Time Source
KGVL METAR 2022/08/13 10:53 UTC NOAA

KGVL 131053Z AUTO 07007KT 10SM FEW039 SCT050 BKN075 21/18 A3013 RMK AO2 SLP184 T02110178


Station Type Date Time Source
KGVL Decoded METAR 2022/08/13 10:53 UTC NOAA

GILMER MEMORIAL AIRPORT, GA, United States (KGVL) 34-16N 83-50W 386M
Aug 13, 2022 - 06:53 AM EDT / 2022.08.13 1053 UTC
Wind: from the ENE (070 degrees) at 8 MPH (7 KT):0
Visibility: 10 mile(s):0
Sky conditions: mostly cloudy
Temperature: 70.0 F (21.1 C)
Dew Point: 64.0 F (17.8 C)
Relative Humidity: 81%
Pressure (altimeter): 30.13 in. Hg (1020 hPa)
ob: KGVL 131053Z AUTO 07007KT 10SM FEW039 SCT050 BKN075 21/18 A3013 RMK AO2 SLP184 T02110178
cycle: 11

Station Type Date Time Source
KGVL TAF UTC NOAA

Error!

Example: see airport list